createdAt,value
2018-07-11T00:01:36.014Z,99.90
2018-07-11T00:04:10.370Z,99.90
2018-07-11T00:06:42.810Z,99.90
2018-07-11T00:09:15.744Z,99.90
2018-07-11T00:14:44.757Z,99.90
2018-07-11T00:17:17.790Z,99.90
2018-07-11T00:19:51.209Z,99.90
2018-07-11T00:22:23.822Z,99.90
2018-07-11T00:24:56.261Z,99.90
2018-07-11T00:27:41.572Z,99.90
2018-07-11T00:30:19.068Z,99.90
2018-07-11T00:32:51.783Z,99.90
2018-07-11T00:35:24.738Z,99.90
2018-07-11T00:38:01.784Z,99.90
2018-07-11T00:40:36.955Z,99.90
2018-07-11T00:46:35.216Z,99.90
2018-07-11T00:52:46.589Z,99.90
2018-07-11T00:55:25.472Z,99.90
2018-07-11T00:57:59.792Z,99.90
2018-07-11T01:01:16.725Z,99.90
2018-07-11T01:03:57.324Z,99.90
2018-07-11T01:06:34.665Z,99.90
2018-07-11T01:09:07.668Z,99.90
2018-07-11T01:11:40.891Z,99.90
2018-07-11T01:14:30.626Z,99.90
2018-07-11T01:17:13.183Z,99.90
2018-07-11T01:19:56.205Z,99.90
2018-07-11T01:22:54.778Z,99.90
2018-07-11T01:25:26.889Z,99.90
2018-07-11T01:28:01.791Z,99.90
2018-07-11T01:30:34.640Z,99.90
2018-07-11T01:33:07.963Z,99.90
2018-07-11T01:35:42.213Z,99.90
2018-07-11T01:38:15.344Z,99.90
2018-07-11T01:40:47.485Z,99.90
2018-07-11T01:43:47.288Z,99.90
2018-07-11T01:46:30.780Z,99.90
2018-07-11T01:49:25.806Z,99.90
2018-07-11T01:52:07.188Z,99.90
2018-07-11T01:54:41.735Z,99.90
2018-07-11T01:57:15.636Z,99.90
2018-07-11T01:59:51.685Z,99.90
2018-07-11T02:02:30.710Z,99.90
2018-07-11T02:05:06.167Z,99.90
2018-07-11T02:16:43.252Z,99.90
2018-07-11T02:22:20.534Z,99.90
2018-07-11T02:25:07.740Z,99.90
2018-07-11T02:27:43.232Z,99.90
2018-07-11T02:30:33.833Z,99.90
2018-07-11T02:33:09.134Z,99.90
2018-07-11T02:38:24.743Z,99.90
2018-07-11T02:41:04.989Z,99.90
2018-07-11T02:43:39.690Z,99.90
2018-07-11T02:46:13.400Z,99.90
2018-07-11T02:51:57.952Z,99.90
2018-07-11T02:58:29.956Z,99.90
2018-07-11T03:01:04.410Z,99.90
2018-07-11T03:03:36.906Z,99.90
2018-07-11T03:06:11.233Z,99.90
2018-07-11T03:08:44.317Z,99.90
2018-07-11T03:11:17.962Z,99.90
2018-07-11T03:13:50.958Z,99.90
2018-07-11T03:19:06.381Z,99.90
2018-07-11T03:24:24.009Z,99.90
2018-07-11T03:26:58.809Z,99.90
2018-07-11T03:29:39.045Z,99.90
2018-07-11T03:32:15.545Z,99.90
2018-07-11T03:34:48.016Z,99.90
2018-07-11T03:37:20.624Z,99.90
2018-07-11T03:39:52.923Z,99.90
2018-07-11T03:42:26.803Z,99.90
2018-07-11T03:45:00.171Z,99.90
2018-07-11T03:47:32.660Z,99.90
2018-07-11T03:50:05.093Z,99.90
2018-07-11T03:52:38.350Z,99.90
2018-07-11T03:55:10.859Z,99.90
2018-07-11T03:57:44.868Z,99.90
2018-07-11T04:00:17.689Z,99.90
2018-07-11T04:02:51.031Z,99.90
2018-07-11T04:05:25.599Z,99.90
2018-07-11T04:08:02.945Z,99.90
2018-07-11T04:10:35.304Z,99.90
2018-07-11T04:13:11.789Z,99.90
2018-07-11T04:15:44.818Z,99.90
2018-07-11T04:18:20.796Z,99.90
2018-07-11T04:20:53.114Z,99.90
2018-07-11T04:23:25.955Z,99.90
2018-07-11T04:25:59.764Z,99.90
2018-07-11T04:28:34.105Z,99.90
2018-07-11T04:31:08.288Z,99.90
2018-07-11T04:33:41.044Z,99.90
2018-07-11T04:36:15.350Z,99.90
2018-07-11T04:38:50.074Z,99.90
2018-07-11T04:41:23.779Z,99.90
2018-07-11T04:43:56.992Z,99.90
2018-07-11T04:46:31.061Z,99.90
2018-07-11T04:49:08.954Z,99.90
2018-07-11T04:51:43.643Z,99.90
2018-07-11T04:54:16.691Z,99.90
2018-07-11T04:56:49.493Z,99.90
2018-07-11T04:59:23.472Z,99.90
2018-07-11T05:01:56.333Z,99.90
2018-07-11T05:04:29.639Z,99.90
2018-07-11T05:07:03.504Z,99.90
2018-07-11T05:09:37.461Z,99.90
2018-07-11T05:12:09.872Z,99.90
2018-07-11T05:14:42.446Z,99.90
2018-07-11T05:17:15.392Z,99.90
2018-07-11T05:19:49.268Z,99.90
2018-07-11T05:22:21.648Z,99.90
2018-07-11T05:24:54.680Z,99.90
2018-07-11T05:27:28.038Z,99.90
2018-07-11T05:30:00.936Z,99.90
2018-07-11T05:32:33.399Z,99.90
2018-07-11T05:35:05.742Z,99.90
2018-07-11T05:37:39.009Z,99.90
2018-07-11T05:40:11.537Z,99.90
2018-07-11T05:42:45.709Z,99.90
2018-07-11T05:45:18.294Z,99.90
2018-07-11T05:47:51.511Z,99.90
2018-07-11T05:50:26.784Z,99.90
2018-07-11T05:53:00.352Z,99.90
2018-07-11T05:55:33.483Z,99.90
2018-07-11T05:58:05.987Z,99.90
2018-07-11T06:00:39.004Z,99.90
2018-07-11T06:03:11.298Z,99.90
2018-07-11T06:05:44.344Z,99.90
2018-07-11T06:08:17.298Z,99.90
2018-07-11T06:10:50.236Z,99.90
2018-07-11T06:13:23.444Z,99.90
2018-07-11T06:15:56.470Z,99.90
2018-07-11T06:18:30.384Z,99.90
2018-07-11T06:21:03.857Z,99.90
2018-07-11T06:23:37.002Z,99.90
2018-07-11T06:26:10.451Z,99.90
2018-07-11T06:28:43.177Z,99.90
2018-07-11T06:31:16.442Z,99.90
2018-07-11T06:33:48.735Z,99.90
2018-07-11T06:36:21.419Z,99.90
2018-07-11T06:38:53.741Z,99.90
2018-07-11T06:41:26.291Z,99.90
2018-07-11T06:43:59.315Z,99.90
2018-07-11T06:46:32.597Z,99.90
2018-07-11T06:49:05.124Z,99.90
2018-07-11T06:51:37.695Z,99.90
2018-07-11T06:54:10.822Z,99.90
2018-07-11T06:56:44.837Z,99.90
2018-07-11T06:59:17.923Z,99.90
2018-07-11T07:01:50.347Z,99.90
2018-07-11T07:04:23.595Z,99.90
2018-07-11T07:06:57.722Z,99.90
2018-07-11T07:09:29.996Z,99.90
2018-07-11T07:12:02.678Z,99.90
2018-07-11T07:14:35.039Z,99.90
2018-07-11T07:17:07.410Z,99.90
2018-07-11T07:19:40.404Z,99.90
2018-07-11T07:22:13.234Z,99.90
2018-07-11T07:24:46.872Z,99.90
2018-07-11T07:27:19.421Z,99.90
2018-07-11T07:29:52.135Z,99.90
2018-07-11T07:32:26.422Z,99.90
2018-07-11T07:34:59.274Z,99.90
2018-07-11T07:37:31.711Z,99.90
2018-07-11T07:40:04.597Z,99.90
2018-07-11T07:42:37.049Z,99.90
2018-07-11T07:45:09.511Z,99.90
2018-07-11T07:47:45.892Z,99.90
2018-07-11T07:50:18.897Z,99.90
2018-07-11T07:53:16.544Z,99.90
2018-07-11T07:55:49.116Z,99.90
2018-07-11T07:58:21.818Z,99.90
2018-07-11T08:00:54.666Z,99.90
2018-07-11T08:03:27.417Z,99.90
2018-07-11T08:05:59.695Z,99.90
2018-07-11T08:08:32.056Z,99.90
2018-07-11T08:11:04.437Z,99.90
2018-07-11T08:13:36.921Z,99.90
2018-07-11T08:16:09.314Z,99.90
2018-07-11T08:18:41.805Z,99.90
2018-07-11T08:21:14.136Z,99.90
2018-07-11T08:23:55.832Z,99.90
2018-07-11T08:26:37.263Z,99.90
2018-07-11T08:31:46.432Z,99.90
2018-07-11T08:34:31.382Z,99.90
2018-07-11T08:37:21.789Z,99.90
2018-07-11T08:40:22.762Z,99.90
2018-07-11T08:45:13.283Z,99.90
2018-07-11T08:48:03.836Z,99.90
2018-07-11T08:52:49.177Z,99.90
2018-07-11T08:55:44.663Z,99.90
2018-07-11T08:58:35.153Z,99.90
2018-07-11T09:01:16.750Z,99.90
2018-07-11T09:04:08.948Z,99.90
2018-07-11T09:09:09.725Z,99.90
2018-07-11T09:11:54.208Z,99.90
2018-07-11T09:16:37.632Z,99.90
2018-07-11T09:21:27.950Z,99.90
2018-07-11T09:24:20.380Z,99.90
2018-07-11T09:26:53.223Z,99.90
2018-07-11T09:29:25.773Z,99.90
2018-07-11T09:31:59.248Z,99.90
2018-07-11T09:34:31.701Z,99.90
2018-07-11T09:37:07.861Z,99.90
2018-07-11T09:39:40.224Z,99.90
2018-07-11T09:42:13.099Z,99.90
2018-07-11T09:44:46.058Z,99.90
2018-07-11T09:47:22.965Z,99.90
2018-07-11T09:49:55.433Z,99.90
2018-07-11T09:52:27.766Z,99.90
2018-07-11T09:55:00.657Z,99.90
2018-07-11T09:57:37.458Z,99.90
2018-07-11T10:00:13.629Z,99.90
2018-07-11T10:02:46.139Z,99.90
2018-07-11T10:05:19.335Z,99.90
2018-07-11T10:07:52.218Z,99.90
2018-07-11T10:10:24.960Z,99.90
2018-07-11T10:12:57.297Z,99.90
2018-07-11T10:15:29.749Z,99.90
2018-07-11T10:18:05.843Z,99.90
2018-07-11T10:20:39.726Z,99.90
2018-07-11T10:23:13.116Z,99.90
2018-07-11T10:25:46.350Z,99.90
2018-07-11T10:28:21.530Z,99.90
2018-07-11T10:30:54.471Z,99.90
2018-07-11T10:33:27.296Z,99.90
2018-07-11T10:35:59.913Z,99.90
2018-07-11T10:38:58.992Z,99.90
2018-07-11T10:41:31.393Z,99.90
2018-07-11T10:44:03.709Z,99.90
2018-07-11T10:46:36.305Z,99.90
2018-07-11T10:49:09.354Z,99.90
2018-07-11T10:51:41.765Z,99.90
2018-07-11T10:54:14.217Z,99.90
2018-07-11T10:56:47.835Z,99.90
2018-07-11T10:59:21.751Z,99.90
2018-07-11T11:01:55.318Z,99.90
2018-07-11T11:04:32.343Z,99.90
2018-07-11T11:07:05.754Z,99.90
2018-07-11T11:09:38.660Z,99.90
2018-07-11T11:12:11.846Z,99.90
2018-07-11T11:14:45.479Z,99.90
2018-07-11T11:17:19.728Z,99.90
2018-07-11T11:20:00.463Z,99.90
2018-07-11T11:22:34.424Z,99.90
2018-07-11T11:25:07.572Z,99.90
2018-07-11T11:27:41.259Z,99.90
2018-07-11T11:30:13.707Z,99.90
2018-07-11T11:32:46.570Z,99.90
2018-07-11T11:35:19.526Z,99.90
2018-07-11T11:37:52.248Z,99.90
2018-07-11T11:40:29.884Z,99.90
2018-07-11T11:43:03.269Z,99.90
2018-07-11T11:45:38.059Z,99.90
2018-07-11T11:48:11.356Z,99.90
2018-07-11T11:50:44.162Z,99.90
2018-07-11T11:53:18.075Z,99.90
2018-07-11T11:55:51.792Z,99.90
2018-07-11T11:58:24.342Z,99.90
2018-07-11T12:01:05.120Z,99.90
2018-07-11T13:58:26.739Z,99.90
2018-07-11T14:33:07.456Z,99.90
2018-07-11T14:45:13.832Z,99.90
2018-07-11T14:47:51.273Z,99.90
2018-07-11T14:50:25.767Z,99.90
2018-07-11T14:52:59.777Z,99.90
2018-07-11T14:55:48.634Z,99.90
2018-07-11T14:58:22.467Z,99.90
2018-07-11T15:00:55.673Z,99.90
2018-07-11T15:03:29.102Z,99.90
2018-07-11T15:06:10.400Z,99.90
2018-07-11T15:08:52.768Z,99.90
2018-07-11T15:11:51.169Z,99.90
2018-07-11T15:14:32.779Z,99.90
2018-07-11T15:17:35.068Z,99.90
2018-07-11T15:23:20.838Z,99.90
2018-07-11T15:26:28.424Z,99.90
2018-07-11T15:29:12.614Z,99.90
2018-07-11T15:32:03.941Z,99.90
2018-07-11T15:34:43.868Z,99.90
2018-07-11T15:37:18.579Z,99.90
2018-07-11T15:40:01.910Z,99.90
2018-07-11T15:42:40.339Z,99.90
2018-07-11T15:45:16.209Z,99.90
2018-07-11T15:47:50.658Z,99.90
2018-07-11T15:50:28.234Z,99.90
2018-07-11T15:53:01.141Z,99.90
2018-07-11T15:55:38.987Z,99.90
2018-07-11T15:58:19.551Z,99.90
2018-07-11T16:00:52.472Z,99.90
2018-07-11T16:03:26.476Z,99.90
2018-07-11T16:06:13.528Z,99.90
2018-07-11T16:08:53.697Z,99.90
2018-07-11T16:11:28.364Z,99.90
2018-07-11T16:14:01.784Z,99.90
2018-07-11T16:16:35.222Z,99.90
2018-07-11T16:19:10.265Z,99.90
2018-07-11T16:21:46.224Z,99.90
2018-07-11T16:24:24.458Z,99.90
2018-07-11T16:27:35.134Z,98.90
2018-07-11T16:30:13.991Z,97.90
2018-07-11T16:32:51.362Z,95.20
2018-07-11T16:35:27.141Z,94.90
2018-07-11T16:38:02.017Z,96.20
2018-07-11T16:40:35.727Z,97.60
2018-07-11T16:43:11.807Z,98.30
2018-07-11T16:45:46.566Z,99.50
2018-07-11T16:48:21.935Z,98.70
2018-07-11T16:51:00.286Z,98.70
2018-07-11T16:53:34.641Z,96.30
2018-07-11T16:56:08.721Z,95.20
2018-07-11T17:02:15.988Z,95.60
2018-07-11T17:09:32.119Z,94.60
2018-07-11T17:12:13.058Z,97.20
2018-07-11T17:21:50.412Z,98.80
2018-07-11T17:24:41.776Z,99.30
2018-07-11T17:27:35.293Z,99.90
2018-07-11T17:30:08.997Z,99.90
2018-07-11T17:32:43.593Z,99.00
2018-07-11T17:35:18.669Z,96.60
2018-07-11T17:37:55.960Z,92.10
2018-07-11T17:40:30.668Z,90.60
2018-07-11T17:43:10.597Z,82.10
2018-07-11T17:45:44.861Z,79.20
2018-07-11T17:49:32.130Z,76.40
2018-07-11T17:52:12.536Z,78.60
2018-07-11T17:55:19.282Z,72.50
2018-07-11T17:58:01.924Z,74.70
2018-07-11T18:01:01.027Z,72.70
2018-07-11T18:03:41.433Z,71.80
2018-07-11T18:07:25.563Z,78.30
2018-07-11T18:10:15.824Z,82.10
2018-07-11T18:12:56.879Z,76.40
2018-07-11T18:15:39.678Z,75.00
2018-07-11T18:20:27.234Z,82.20
2018-07-11T18:23:16.507Z,77.20
2018-07-11T18:26:04.617Z,73.50
2018-07-11T18:28:48.961Z,70.20
2018-07-11T18:31:35.602Z,68.10
2018-07-11T18:36:24.636Z,68.40
2018-07-11T18:39:16.971Z,66.50
2018-07-11T18:57:29.501Z,74.40
2018-07-11T19:26:12.100Z,90.10
2018-07-11T19:47:55.051Z,89.60
2018-07-11T19:53:40.137Z,82.00
2018-07-11T19:56:32.049Z,72.30
2018-07-11T20:14:31.999Z,67.10
2018-07-11T20:27:21.899Z,87.60
2018-07-11T20:33:29.929Z,87.90
2018-07-11T20:39:25.481Z,87.80
2018-07-11T20:42:20.414Z,86.50
2018-07-11T20:44:54.382Z,87.20
2018-07-11T20:47:29.974Z,90.20
2018-07-11T20:50:03.745Z,88.10
2018-07-11T20:52:42.509Z,85.30
2018-07-11T20:55:26.300Z,85.00
2018-07-11T21:00:15.699Z,90.20
2018-07-11T21:03:06.805Z,90.00
2018-07-11T21:07:51.270Z,91.50
2018-07-11T21:12:39.561Z,93.20
2018-07-11T21:15:45.232Z,93.60
2018-07-11T21:19:24.038Z,97.40
2018-07-11T21:22:06.731Z,95.90
2018-07-11T21:24:43.966Z,96.50
2018-07-11T21:27:31.878Z,98.40
2018-07-11T21:30:12.541Z,97.70
2018-07-11T21:32:54.457Z,99.40
2018-07-11T21:35:29.438Z,99.30
2018-07-11T21:38:02.415Z,99.90
2018-07-11T21:40:37.159Z,99.90
2018-07-11T21:43:11.720Z,99.90
2018-07-11T21:45:47.325Z,99.90
2018-07-11T21:48:24.294Z,99.90
2018-07-11T21:50:58.829Z,99.90
2018-07-11T21:53:32.393Z,99.90
2018-07-11T21:56:07.867Z,99.90
2018-07-11T21:58:50.968Z,99.90
2018-07-11T22:01:24.453Z,99.90
2018-07-11T22:03:57.450Z,99.90
2018-07-11T22:06:31.648Z,98.70
2018-07-11T22:09:06.073Z,99.90
2018-07-11T22:11:39.986Z,99.90
2018-07-11T22:14:13.392Z,99.90
2018-07-11T22:16:45.987Z,99.90
2018-07-11T22:19:48.901Z,99.90
2018-07-11T22:22:23.695Z,99.90
2018-07-11T22:24:54.712Z,99.90
2018-07-11T22:27:53.681Z,99.90
2018-07-11T22:30:27.574Z,99.90
2018-07-11T22:32:57.371Z,99.90
2018-07-11T22:35:29.990Z,99.90
2018-07-11T22:37:59.714Z,99.90
2018-07-11T22:40:30.467Z,99.90
2018-07-11T22:43:01.110Z,99.90
2018-07-11T22:45:30.983Z,99.90
2018-07-11T22:48:01.844Z,99.90
2018-07-11T22:50:32.133Z,99.90
2018-07-11T22:53:08.879Z,99.90
2018-07-11T22:55:46.786Z,99.90
2018-07-11T22:58:18.735Z,99.90
2018-07-11T23:00:48.577Z,99.90
2018-07-11T23:03:19.793Z,99.90
2018-07-11T23:06:02.648Z,99.90
2018-07-11T23:08:33.995Z,99.90
2018-07-11T23:11:03.691Z,99.90
2018-07-11T23:13:34.561Z,99.90
2018-07-11T23:16:11.753Z,99.90
2018-07-11T23:19:04.768Z,99.90
2018-07-11T23:21:46.573Z,99.90
2018-07-11T23:24:16.359Z,99.90
2018-07-11T23:26:55.209Z,99.90
2018-07-11T23:29:25.862Z,99.90
2018-07-11T23:32:07.890Z,99.90
2018-07-11T23:34:44.978Z,99.90
2018-07-11T23:40:21.988Z,99.90
2018-07-11T23:45:36.823Z,99.90
2018-07-11T23:48:15.405Z,99.90
2018-07-11T23:51:02.515Z,99.90
